createdAt,value
2018-10-21T00:00:42.811Z,95.24
2018-10-21T00:03:11.956Z,95.43
2018-10-21T00:05:41.012Z,96.33
2018-10-21T00:08:10.080Z,96.07
2018-10-21T00:10:39.213Z,96.48
2018-10-21T00:13:08.251Z,95.90
2018-10-21T00:15:37.562Z,95.51
2018-10-21T00:18:06.685Z,96.16
2018-10-21T00:20:35.804Z,97.25
2018-10-21T00:23:05.120Z,96.57
2018-10-21T00:25:34.089Z,96.96
2018-10-21T00:28:03.245Z,97.06
2018-10-21T00:30:32.630Z,98.33
2018-10-21T00:33:01.568Z,97.90
2018-10-21T00:35:30.439Z,98.33
2018-10-21T00:37:59.536Z,98.59
2018-10-21T00:40:28.718Z,97.77
2018-10-21T00:42:57.782Z,97.60
2018-10-21T00:45:27.168Z,97.32
2018-10-21T00:47:56.199Z,96.54
2018-10-21T00:50:25.121Z,97.34
2018-10-21T00:52:54.647Z,97.17
2018-10-21T00:55:23.824Z,97.37
2018-10-21T00:57:53.063Z,96.91
2018-10-21T01:00:22.169Z,96.61
2018-10-21T01:02:51.360Z,96.73
2018-10-21T01:05:20.426Z,97.40
2018-10-21T01:07:49.532Z,98.63
2018-10-21T01:10:18.588Z,98.87
2018-10-21T01:12:47.701Z,100.00
2018-10-21T01:15:17.037Z,100.00
2018-10-21T01:17:45.991Z,98.94
2018-10-21T01:20:14.852Z,98.75
2018-10-21T01:22:43.852Z,99.70
2018-10-21T01:25:12.913Z,99.82
2018-10-21T01:27:42.556Z,99.38
2018-10-21T01:30:12.892Z,99.36
2018-10-21T01:32:41.845Z,99.29
2018-10-21T01:35:11.021Z,99.01
2018-10-21T01:37:40.146Z,98.08
2018-10-21T01:40:41.478Z,98.34
2018-10-21T01:43:12.140Z,97.26
2018-10-21T01:45:41.095Z,98.00
2018-10-21T01:48:11.135Z,98.31
2018-10-21T01:50:40.332Z,98.42
2018-10-21T01:53:10.442Z,98.80
2018-10-21T01:55:39.546Z,99.62
2018-10-21T01:58:09.131Z,99.24
2018-10-21T02:00:38.673Z,99.39
2018-10-21T02:03:07.683Z,99.50
2018-10-21T02:05:37.355Z,99.00
2018-10-21T02:08:06.665Z,99.63
2018-10-21T02:10:35.864Z,98.80
2018-10-21T02:13:04.800Z,98.26
2018-10-21T02:15:33.901Z,99.25
2018-10-21T02:18:03.129Z,99.41
2018-10-21T02:20:32.405Z,98.91
2018-10-21T02:23:01.433Z,98.46
2018-10-21T02:25:30.595Z,97.31
2018-10-21T02:27:59.572Z,96.75
2018-10-21T02:30:29.740Z,97.37
2018-10-21T02:33:01.380Z,97.24
2018-10-21T02:35:31.906Z,96.69
2018-10-21T02:38:02.214Z,95.92
2018-10-21T02:41:55.623Z,95.27
2018-10-21T02:44:30.561Z,94.96
2018-10-21T02:46:59.687Z,95.44
2018-10-21T02:49:28.739Z,95.95
2018-10-21T02:52:03.289Z,95.59
2018-10-21T02:54:32.752Z,96.25
2018-10-21T02:57:01.872Z,95.55
2018-10-21T02:59:31.319Z,95.38
2018-10-21T03:02:00.389Z,94.89
2018-10-21T03:04:29.461Z,96.02
2018-10-21T03:06:58.876Z,95.90
2018-10-21T03:09:28.306Z,95.63
2018-10-21T03:11:57.334Z,95.03
2018-10-21T03:14:26.572Z,94.98
2018-10-21T03:16:55.711Z,95.64
2018-10-21T03:19:24.641Z,96.49
2018-10-21T03:21:53.840Z,96.79
2018-10-21T03:24:22.848Z,97.81
2018-10-21T03:26:52.034Z,97.78
2018-10-21T03:29:21.422Z,98.43
2018-10-21T03:31:50.500Z,99.30
2018-10-21T03:34:19.552Z,99.14
2018-10-21T03:36:48.568Z,99.39
2018-10-21T03:39:17.528Z,99.82
2018-10-21T03:41:46.431Z,100.00
2018-10-21T03:44:15.883Z,100.00
2018-10-21T03:46:44.833Z,100.00
2018-10-21T03:49:13.991Z,100.00
2018-10-21T03:51:43.349Z,100.00
2018-10-21T03:54:12.425Z,100.00
2018-10-21T03:56:41.508Z,100.00
2018-10-21T03:59:11.043Z,100.00
2018-10-21T04:01:40.056Z,100.00
2018-10-21T04:04:09.213Z,100.00
2018-10-21T04:06:38.529Z,100.00
2018-10-21T04:09:07.992Z,100.00
2018-10-21T04:11:37.064Z,100.00
2018-10-21T04:14:06.413Z,100.00
2018-10-21T04:16:35.496Z,100.00
2018-10-21T04:19:04.550Z,100.00
2018-10-21T04:21:33.568Z,100.00
2018-10-21T04:24:02.611Z,100.00
2018-10-21T04:26:31.523Z,100.00
2018-10-21T04:29:00.585Z,100.00
2018-10-21T04:31:29.625Z,100.00
2018-10-21T04:33:58.868Z,100.00
2018-10-21T04:36:30.054Z,100.00
2018-10-21T04:40:11.561Z,100.00
2018-10-21T04:42:40.742Z,100.00
2018-10-21T04:45:10.615Z,100.00
2018-10-21T04:47:39.608Z,100.00
2018-10-21T04:50:09.730Z,100.00
2018-10-21T04:52:38.753Z,100.00
2018-10-21T04:55:10.734Z,100.00
2018-10-21T04:57:41.003Z,100.00
2018-10-21T05:00:12.672Z,100.00
2018-10-21T05:02:41.730Z,100.00
2018-10-21T05:05:12.215Z,100.00
2018-10-21T05:07:41.447Z,100.00
2018-10-21T05:10:18.968Z,100.00
2018-10-21T05:12:48.024Z,100.00
2018-10-21T05:15:17.250Z,100.00
2018-10-21T05:17:46.216Z,100.00
2018-10-21T05:20:19.451Z,100.00
2018-10-21T05:22:56.926Z,100.00
2018-10-21T05:25:35.000Z,100.00
2018-10-21T05:28:12.747Z,100.00
2018-10-21T05:30:43.986Z,100.00
2018-10-21T05:33:14.296Z,100.00
2018-10-21T05:35:44.714Z,100.00
2018-10-21T05:38:15.448Z,100.00
2018-10-21T05:40:47.387Z,100.00
2018-10-21T05:43:19.062Z,100.00
2018-10-21T05:45:48.248Z,100.00
2018-10-21T05:48:17.442Z,99.97
2018-10-21T05:50:46.743Z,99.13
2018-10-21T05:53:15.663Z,99.02
2018-10-21T05:55:44.760Z,99.53
2018-10-21T05:58:14.385Z,100.00
2018-10-21T06:00:44.990Z,98.71
2018-10-21T06:03:14.250Z,99.03
2018-10-21T06:05:46.700Z,98.10
2018-10-21T06:08:17.017Z,98.18
2018-10-21T06:10:49.253Z,98.13
2018-10-21T06:13:19.610Z,96.64
2018-10-21T06:15:48.589Z,95.15
2018-10-21T06:18:22.984Z,95.18
2018-10-21T06:20:54.525Z,94.73
2018-10-21T06:23:23.796Z,94.31
2018-10-21T06:25:52.915Z,94.32
2018-10-21T06:28:21.900Z,93.58
2018-10-21T06:30:51.066Z,92.84
2018-10-21T06:33:19.933Z,92.12
2018-10-21T06:35:48.877Z,93.05
2018-10-21T06:38:19.673Z,92.49
2018-10-21T06:40:48.636Z,91.11
2018-10-21T06:43:17.732Z,87.92
2018-10-21T06:45:46.910Z,86.93
2018-10-21T06:48:16.110Z,85.44
2018-10-21T06:50:45.122Z,85.37
2018-10-21T06:53:14.716Z,85.03
2018-10-21T06:55:44.208Z,82.90
2018-10-21T06:58:13.220Z,82.86
2018-10-21T07:00:42.545Z,83.03
2018-10-21T07:03:11.594Z,82.73
2018-10-21T07:06:19.074Z,81.84
2018-10-21T07:08:49.259Z,80.24
2018-10-21T07:11:18.596Z,80.59
2018-10-21T07:13:47.999Z,79.48
2018-10-21T07:16:17.141Z,79.55
2018-10-21T07:18:47.251Z,79.88
2018-10-21T07:21:16.873Z,78.65
2018-10-21T07:23:46.250Z,78.81
2018-10-21T07:26:15.326Z,78.41
2018-10-21T07:28:44.589Z,78.18
2018-10-21T07:31:13.641Z,76.75
2018-10-21T07:33:42.702Z,77.71
2018-10-21T07:36:12.099Z,77.62
2018-10-21T07:38:40.949Z,76.83
2018-10-21T07:41:09.944Z,75.36
2018-10-21T07:43:39.001Z,76.09
2018-10-21T07:46:08.201Z,75.30
2018-10-21T07:48:37.236Z,74.23
2018-10-21T07:51:07.676Z,72.85
2018-10-21T07:53:36.755Z,73.52
2018-10-21T07:56:05.946Z,72.75
2018-10-21T07:58:35.525Z,72.77
2018-10-21T08:01:04.709Z,72.40
2018-10-21T08:03:33.880Z,70.63
2018-10-21T08:06:29.213Z,69.99
2018-10-21T08:08:58.881Z,70.73
2018-10-21T08:11:28.186Z,69.84
2018-10-21T08:13:57.551Z,69.28
2018-10-21T08:16:26.534Z,68.02
2018-10-21T08:18:55.672Z,67.95
2018-10-21T08:21:25.006Z,67.32
2018-10-21T08:23:54.017Z,66.77
2018-10-21T08:26:23.080Z,66.95
2018-10-21T08:28:52.520Z,66.57
2018-10-21T08:31:21.987Z,66.95
2018-10-21T08:33:51.148Z,66.02
2018-10-21T08:36:20.604Z,65.58
2018-10-21T08:38:49.541Z,65.27
2018-10-21T08:41:18.661Z,65.58
2018-10-21T08:43:47.988Z,64.71
2018-10-21T08:46:17.037Z,65.43
2018-10-21T08:48:46.017Z,64.46
2018-10-21T08:51:15.253Z,64.67
2018-10-21T08:53:44.269Z,64.35
2018-10-21T08:56:13.345Z,64.33
2018-10-21T08:58:42.753Z,64.99
2018-10-21T09:01:11.727Z,65.09
2018-10-21T09:03:40.666Z,66.37
2018-10-21T09:06:09.797Z,65.62
2018-10-21T09:08:39.098Z,64.66
2018-10-21T09:11:08.170Z,64.38
2018-10-21T09:13:37.152Z,63.89
2018-10-21T09:16:06.232Z,62.81
2018-10-21T09:18:35.204Z,62.92
2018-10-21T09:21:04.581Z,62.12
2018-10-21T09:23:33.709Z,62.15
2018-10-21T09:26:02.725Z,62.09
2018-10-21T09:28:32.214Z,60.62
2018-10-21T09:31:01.276Z,60.67
2018-10-21T09:33:30.404Z,60.74
2018-10-21T09:35:59.981Z,60.08
2018-10-21T09:38:29.026Z,60.96
2018-10-21T09:40:58.137Z,61.42
2018-10-21T09:43:27.333Z,60.17
2018-10-21T09:45:56.432Z,60.07
2018-10-21T09:48:25.901Z,60.53
2018-10-21T09:50:54.971Z,58.98
2018-10-21T09:53:24.103Z,58.42
2018-10-21T09:55:53.264Z,57.34
2018-10-21T09:58:22.574Z,57.07
2018-10-21T10:00:56.654Z,56.17
2018-10-21T10:03:25.833Z,56.89
2018-10-21T10:05:54.885Z,58.83
2018-10-21T10:08:24.115Z,57.25
2018-10-21T10:10:53.091Z,56.68
2018-10-21T10:13:22.221Z,56.76
2018-10-21T10:15:51.214Z,56.61
2018-10-21T10:18:20.462Z,57.09
2018-10-21T10:20:49.403Z,56.19
2018-10-21T10:23:18.619Z,56.49
2018-10-21T10:25:47.691Z,55.83
2018-10-21T10:28:16.822Z,55.84
2018-10-21T10:30:45.804Z,55.29
2018-10-21T10:33:15.056Z,54.26
2018-10-21T10:35:44.105Z,53.23
2018-10-21T10:38:13.132Z,52.57
2018-10-21T10:40:42.552Z,53.01
2018-10-21T10:43:11.765Z,52.58
2018-10-21T10:45:40.840Z,51.15
2018-10-21T10:48:10.095Z,52.27
2018-10-21T10:50:39.274Z,52.10
2018-10-21T10:53:08.420Z,52.48
2018-10-21T10:55:42.580Z,53.22
2018-10-21T11:00:48.932Z,53.42
2018-10-21T11:03:17.934Z,52.74
2018-10-21T11:07:16.645Z,51.77
2018-10-21T11:09:45.613Z,52.08
2018-10-21T11:12:14.718Z,51.45
2018-10-21T11:14:44.199Z,51.64
2018-10-21T11:17:13.079Z,52.50
2018-10-21T11:19:42.116Z,53.54
2018-10-21T11:22:11.471Z,53.27
2018-10-21T11:24:48.407Z,53.58
2018-10-21T11:27:18.172Z,54.51
2018-10-21T11:29:48.503Z,52.62
2018-10-21T11:32:17.489Z,53.17
2018-10-21T11:34:46.533Z,54.68
2018-10-21T11:37:15.511Z,56.66
2018-10-21T11:40:47.119Z,55.79
2018-10-21T11:43:16.165Z,55.37
2018-10-21T11:45:45.421Z,54.01
2018-10-21T11:48:14.347Z,52.25
2018-10-21T11:50:43.579Z,51.16
2018-10-21T11:53:12.684Z,49.91
2018-10-21T11:55:43.113Z,48.10
2018-10-21T11:58:13.415Z,48.38
2018-10-21T12:00:43.588Z,47.59
2018-10-21T12:03:13.055Z,48.56
2018-10-21T12:05:42.872Z,47.27
2018-10-21T12:08:12.345Z,46.40
2018-10-21T12:10:41.521Z,46.58
2018-10-21T12:13:10.503Z,48.77
2018-10-21T12:15:39.733Z,51.97
2018-10-21T12:18:10.140Z,52.45
2018-10-21T12:20:39.883Z,52.95
2018-10-21T12:23:09.038Z,52.70
2018-10-21T12:25:39.114Z,50.86
2018-10-21T12:28:08.747Z,50.56
2018-10-21T12:30:37.707Z,49.17
2018-10-21T12:33:06.936Z,50.19
2018-10-21T12:35:35.855Z,50.54
2018-10-21T12:38:05.016Z,50.70
2018-10-21T12:40:34.085Z,51.57
2018-10-21T12:43:03.268Z,51.38
2018-10-21T12:45:32.452Z,52.44
2018-10-21T12:48:01.289Z,52.04
2018-10-21T12:50:30.834Z,51.33
2018-10-21T12:52:59.789Z,51.69
2018-10-21T12:55:28.784Z,51.66
2018-10-21T12:57:57.986Z,52.73
2018-10-21T13:00:26.962Z,53.79
2018-10-21T13:02:56.082Z,54.28
2018-10-21T13:05:25.483Z,54.81
2018-10-21T13:07:54.474Z,54.09
2018-10-21T13:10:23.565Z,53.98
2018-10-21T13:12:52.911Z,55.12
2018-10-21T13:15:21.861Z,55.19
2018-10-21T13:17:50.848Z,55.61
2018-10-21T13:20:20.038Z,55.35
2018-10-21T13:22:49.078Z,54.72
2018-10-21T13:25:18.374Z,55.61
2018-10-21T13:27:47.439Z,54.01
2018-10-21T13:30:16.565Z,55.13
2018-10-21T13:32:45.599Z,55.29
2018-10-21T13:35:14.913Z,54.32
2018-10-21T13:37:43.952Z,53.72
2018-10-21T13:40:13.120Z,54.09
2018-10-21T13:42:42.282Z,54.68
2018-10-21T13:45:11.248Z,54.39
2018-10-21T13:47:40.509Z,54.50
2018-10-21T13:52:43.733Z,55.63
2018-10-21T13:55:13.293Z,55.56
2018-10-21T13:57:42.471Z,55.31
2018-10-21T14:00:11.636Z,55.85
2018-10-21T14:02:40.849Z,55.87
2018-10-21T14:05:10.729Z,56.29
2018-10-21T14:07:40.059Z,57.26
2018-10-21T14:10:10.495Z,56.96
2018-10-21T14:12:39.501Z,57.07
2018-10-21T14:15:08.769Z,56.86
2018-10-21T14:17:37.643Z,57.43
2018-10-21T14:20:08.102Z,57.45
2018-10-21T14:22:37.131Z,57.99
2018-10-21T14:25:07.097Z,58.31
2018-10-21T14:27:36.263Z,58.19
2018-10-21T14:30:07.542Z,58.65
2018-10-21T14:32:37.293Z,58.61
2018-10-21T14:35:08.808Z,59.10
2018-10-21T14:37:38.323Z,59.52
2018-10-21T14:40:10.206Z,59.43
2018-10-21T14:42:39.809Z,59.56
2018-10-21T14:45:11.045Z,59.52
2018-10-21T14:47:40.658Z,59.97
2018-10-21T14:50:12.488Z,58.98
2018-10-21T14:52:41.583Z,59.48
2018-10-21T14:55:11.463Z,59.51
2018-10-21T14:57:40.888Z,59.81
2018-10-21T15:00:11.636Z,60.25
2018-10-21T15:02:40.894Z,59.54
2018-10-21T15:05:11.977Z,59.64
2018-10-21T15:07:42.152Z,59.83
2018-10-21T15:10:11.976Z,60.45
2018-10-21T15:12:41.156Z,61.43
2018-10-21T15:15:11.009Z,62.25
2018-10-21T15:17:40.038Z,62.85
2018-10-21T15:20:11.632Z,63.25
2018-10-21T15:22:40.749Z,63.43
2018-10-21T15:25:11.400Z,63.71
2018-10-21T15:27:40.841Z,63.90
2018-10-21T15:30:10.819Z,64.10
2018-10-21T15:32:40.347Z,65.07
2018-10-21T15:35:09.960Z,64.84
2018-10-21T15:37:39.066Z,65.20
2018-10-21T15:40:10.157Z,64.94
2018-10-21T15:42:39.141Z,64.71
2018-10-21T15:45:11.903Z,64.65
2018-10-21T15:47:41.130Z,64.04
2018-10-21T15:50:10.457Z,64.48
2018-10-21T15:52:39.758Z,63.94
2018-10-21T15:55:09.448Z,64.13
2018-10-21T15:57:38.380Z,63.96
2018-10-21T16:00:10.090Z,63.71
2018-10-21T16:02:39.113Z,63.84
2018-10-21T16:05:09.460Z,65.18
2018-10-21T16:07:38.510Z,65.39
2018-10-21T16:10:08.626Z,66.27
2018-10-21T16:12:37.939Z,66.48
2018-10-21T16:15:11.594Z,67.83
2018-10-21T16:17:40.565Z,67.94
2018-10-21T16:20:09.897Z,69.36
2018-10-21T16:22:40.294Z,70.31
2018-10-21T16:25:13.101Z,71.63
2018-10-21T16:27:42.633Z,71.94
2018-10-21T16:30:14.027Z,72.40
2018-10-21T16:32:48.274Z,72.99
2018-10-21T16:35:17.603Z,72.75
2018-10-21T16:37:46.629Z,73.71
2018-10-21T16:40:16.804Z,74.27
2018-10-21T16:42:45.866Z,74.30
2018-10-21T16:45:15.562Z,75.42
2018-10-21T16:47:44.648Z,75.27
2018-10-21T16:50:15.579Z,76.66
2018-10-21T16:52:45.457Z,77.29
2018-10-21T16:55:15.720Z,77.59
2018-10-21T16:57:44.643Z,78.91
2018-10-21T17:00:19.245Z,78.14
2018-10-21T17:02:48.276Z,78.58
2018-10-21T17:05:17.264Z,79.49
2018-10-21T17:07:46.441Z,79.29
2018-10-21T17:10:15.756Z,79.45
2018-10-21T17:12:44.748Z,79.78
2018-10-21T17:15:14.185Z,78.99
2018-10-21T17:17:43.765Z,78.69
2018-10-21T17:20:14.635Z,78.03
2018-10-21T17:22:44.027Z,75.75
2018-10-21T17:25:13.309Z,75.31
2018-10-21T17:27:42.679Z,74.53
2018-10-21T17:30:14.387Z,75.03
2018-10-21T17:32:44.380Z,74.96
2018-10-21T17:35:14.522Z,75.20
2018-10-21T17:37:43.495Z,74.25
2018-10-21T17:40:13.686Z,75.42
2018-10-21T17:42:42.741Z,75.85
2018-10-21T17:45:14.253Z,75.63
2018-10-21T17:47:43.547Z,75.88
2018-10-21T17:50:14.050Z,75.38
2018-10-21T17:52:43.545Z,76.16
2018-10-21T17:55:12.638Z,75.48
2018-10-21T17:57:41.646Z,75.44
2018-10-21T18:00:12.354Z,75.46
2018-10-21T18:02:41.446Z,74.94
2018-10-21T18:05:12.322Z,74.96
2018-10-21T18:07:42.155Z,75.73
2018-10-21T18:10:11.865Z,75.05
2018-10-21T18:12:40.695Z,74.89
2018-10-21T18:15:11.287Z,74.22
2018-10-21T18:17:40.794Z,74.23
2018-10-21T18:20:11.743Z,73.70
2018-10-21T18:22:40.702Z,74.00
2018-10-21T18:25:10.311Z,72.85
2018-10-21T18:27:39.869Z,72.82
2018-10-21T18:30:10.513Z,72.69
2018-10-21T18:32:39.479Z,72.64
2018-10-21T18:35:10.327Z,73.01
2018-10-21T18:37:39.488Z,73.34
2018-10-21T18:41:38.298Z,72.40
2018-10-21T18:44:07.736Z,72.87
2018-10-21T18:46:36.713Z,73.27
2018-10-21T18:49:06.182Z,73.18
2018-10-21T18:51:35.138Z,73.54
2018-10-21T18:54:04.330Z,74.66
2018-10-21T18:56:33.802Z,75.12
2018-10-21T18:59:02.857Z,75.44
2018-10-21T19:01:31.956Z,75.38
2018-10-21T19:04:01.313Z,76.12
2018-10-21T19:06:30.367Z,76.87
2018-10-21T19:08:59.336Z,77.50
2018-10-21T19:11:28.797Z,77.51
2018-10-21T19:13:57.831Z,77.36
2018-10-21T19:16:26.820Z,77.80
2018-10-21T19:18:56.469Z,78.13
2018-10-21T19:21:25.405Z,78.74
2018-10-21T19:23:54.425Z,79.13
2018-10-21T19:26:23.737Z,78.84
2018-10-21T19:28:52.725Z,78.36
2018-10-21T19:31:21.877Z,78.91
2018-10-21T19:33:51.302Z,79.57
2018-10-21T19:36:20.489Z,79.03
2018-10-21T19:38:49.518Z,79.77
2018-10-21T19:41:18.534Z,79.93
2018-10-21T19:43:47.508Z,80.63
2018-10-21T19:46:16.658Z,80.26
2018-10-21T19:48:45.784Z,80.90
2018-10-21T19:51:14.796Z,80.24
2018-10-21T19:53:43.826Z,80.17
2018-10-21T19:56:13.039Z,80.27
2018-10-21T19:58:42.166Z,82.17
2018-10-21T20:01:11.261Z,82.30
2018-10-21T20:03:40.237Z,84.03
2018-10-21T20:06:09.496Z,83.61
2018-10-21T20:08:38.568Z,85.06
2018-10-21T20:11:08.032Z,85.17
2018-10-21T20:13:37.006Z,85.77
2018-10-21T20:16:06.074Z,86.15
2018-10-21T20:18:35.599Z,88.10
2018-10-21T20:21:05.040Z,89.77
2018-10-21T20:23:33.853Z,91.65
2018-10-21T20:26:03.420Z,93.95
2018-10-21T20:28:32.343Z,96.03
2018-10-21T20:31:01.537Z,99.33
2018-10-21T20:33:30.577Z,100.00
2018-10-21T20:35:59.629Z,100.00
2018-10-21T20:38:28.761Z,100.00
2018-10-21T20:40:58.207Z,100.00
2018-10-21T20:43:27.308Z,100.00
2018-10-21T20:45:56.369Z,100.00
2018-10-21T20:48:25.532Z,100.00
2018-10-21T20:50:54.676Z,100.00
2018-10-21T20:53:24.349Z,100.00
2018-10-21T20:55:53.407Z,100.00
2018-10-21T20:58:22.701Z,100.00
2018-10-21T21:00:51.677Z,100.00
2018-10-21T21:03:21.223Z,100.00
2018-10-21T21:05:50.313Z,100.00
2018-10-21T21:08:19.686Z,100.00
2018-10-21T21:10:49.324Z,100.00
2018-10-21T21:13:18.441Z,100.00
2018-10-21T21:15:47.405Z,100.00
2018-10-21T21:18:17.193Z,100.00
2018-10-21T21:20:46.154Z,100.00
2018-10-21T21:23:14.981Z,100.00
2018-10-21T21:25:44.307Z,100.00
2018-10-21T21:28:13.394Z,100.00
2018-10-21T21:30:42.573Z,100.00
2018-10-21T21:33:11.679Z,100.00
2018-10-21T21:35:40.789Z,100.00
2018-10-21T21:38:09.811Z,100.00
2018-10-21T21:40:39.247Z,100.00
2018-10-21T21:43:08.269Z,100.00
2018-10-21T21:45:37.384Z,100.00
2018-10-21T21:48:06.962Z,100.00
2018-10-21T21:50:36.063Z,100.00
2018-10-21T21:53:05.353Z,100.00
2018-10-21T21:55:34.446Z,100.00
2018-10-21T21:58:03.490Z,100.00
2018-10-21T22:00:32.641Z,100.00
2018-10-21T22:03:01.971Z,100.00
2018-10-21T22:05:31.148Z,100.00
2018-10-21T22:08:00.244Z,100.00
2018-10-21T22:10:29.852Z,100.00
2018-10-21T22:12:58.946Z,100.00
2018-10-21T22:15:28.124Z,100.00
2018-10-21T22:17:57.223Z,100.00
2018-10-21T22:20:26.395Z,100.00
2018-10-21T22:22:55.354Z,100.00
2018-10-21T22:25:24.801Z,100.00
2018-10-21T22:27:53.854Z,100.00
2018-10-21T22:30:22.869Z,100.00
2018-10-21T22:32:52.102Z,100.00
2018-10-21T22:35:21.454Z,100.00
2018-10-21T22:37:50.504Z,100.00
2018-10-21T22:40:20.092Z,100.00
2018-10-21T22:42:49.245Z,100.00
2018-10-21T22:45:18.392Z,100.00
2018-10-21T22:47:47.979Z,100.00
2018-10-21T22:50:17.168Z,100.00
2018-10-21T22:52:46.495Z,100.00
2018-10-21T22:55:15.926Z,100.00
2018-10-21T22:57:44.992Z,100.00
2018-10-21T23:00:14.099Z,100.00
2018-10-21T23:02:43.290Z,100.00
2018-10-21T23:05:12.572Z,100.00
2018-10-21T23:07:41.692Z,100.00
2018-10-21T23:10:11.041Z,100.00
2018-10-21T23:12:40.025Z,100.00
2018-10-21T23:15:09.000Z,100.00
2018-10-21T23:17:38.677Z,100.00
2018-10-21T23:20:08.283Z,100.00
2018-10-21T23:22:37.226Z,100.00
2018-10-21T23:25:07.893Z,100.00
2018-10-21T23:27:36.983Z,100.00
2018-10-21T23:30:07.327Z,100.00
2018-10-21T23:32:36.294Z,100.00
2018-10-21T23:35:05.668Z,100.00
2018-10-21T23:37:34.914Z,100.00
2018-10-21T23:40:04.387Z,100.00
2018-10-21T23:42:33.514Z,100.00
2018-10-21T23:45:02.910Z,100.00
2018-10-21T23:47:31.916Z,100.00
2018-10-21T23:50:00.956Z,100.00
2018-10-21T23:52:30.229Z,100.00
2018-10-21T23:54:59.378Z,100.00
2018-10-21T23:57:28.549Z,100.00
2018-10-21T23:59:57.847Z,100.00
